Time;durP1;ratioP1;P1;durP2;ratioP2;P2;SDS_P1;SDS_P2;PMS_P1;PMS_P2;Temp;Humidity;BMP_temperature;BMP_pressure;BME280_temperature;BME280_humidity;BME280_pressure;Samples;Min_cycle;Max_cycle;Signal;HPM_P1;HPM_P2
2022/01/14 00:01:04;;;;;;;163.57;23.83;;;;;;;1.14;100.00;103665.66;4971963;28;20038;-88
2022/01/14 00:03:30;;;;;;;111.93;22.15;;;;;;;1.27;100.00;103691.72;4939331;29;20400;-88
2022/01/14 00:05:56;;;;;;;120.00;23.13;;;;;;;1.23;100.00;103691.91;4955443;28;20040;-89
2022/01/14 00:08:22;;;;;;;139.35;24.15;;;;;;;1.23;100.00;103689.22;4955884;29;20035;-89
2022/01/14 00:10:49;;;;;;;112.10;22.20;;;;;;;0.93;100.00;103638.28;4939261;29;20063;-88
2022/01/14 00:16:04;;;;;;;92.35;21.70;;;;;;;0.78;100.00;103618.56;4956511;28;20039;-89
2022/01/14 00:18:32;;;;;;;84.65;21.25;;;;;;;0.73;100.00;103626.00;4923140;29;20058;-89
2022/01/14 00:21:00;;;;;;;90.00;21.80;;;;;;;0.78;100.00;103636.44;4954536;28;20589;-89
2022/01/14 00:23:34;;;;;;;73.82;22.08;;;;;;;0.98;100.00;103656.75;4955085;28;20034;-89
2022/01/14 00:34:17;;;;;;;80.70;21.13;;;;;;;0.92;100.00;103635.72;4957647;29;20066;-88
2022/01/14 00:36:44;;;;;;;105.75;22.05;;;;;;;1.02;100.00;103663.66;4939031;29;20118;-89
2022/01/14 00:39:11;;;;;;;84.47;21.58;;;;;;;1.03;100.00;103662.69;4940175;29;20154;-89
2022/01/14 00:41:38;;;;;;;113.22;22.80;;;;;;;1.02;100.00;103661.84;4954975;28;20487;-89
2022/01/14 00:44:10;;;;;;;72.00;22.27;;;;;;;0.94;100.00;103641.81;4955320;29;20031;-89
2022/01/14 00:46:38;;;;;;;63.60;20.17;;;;;;;0.64;100.00;103584.59;4939484;29;20038;-90
2022/01/14 00:49:05;;;;;;;90.10;21.73;;;;;;;0.66;100.00;103579.16;4939405;29;20134;-89
2022/01/14 00:51:31;;;;;;;63.55;22.10;;;;;;;0.63;100.00;103574.00;4939672;29;20028;-90
2022/01/14 00:53:58;;;;;;;100.68;20.98;;;;;;;1.05;100.00;103642.97;4939223;29;20485;-88
2022/01/14 01:01:39;;;;;;;108.00;20.25;;;;;;;0.57;100.00;103548.47;4968450;28;20102;-88
2022/01/14 01:04:08;;;;;;;125.28;20.58;;;;;;;0.90;100.00;103609.06;4938562;29;20035;-89
2022/01/14 01:06:37;;;;;;;121.75;20.20;;;;;;;0.52;100.00;103562.06;4938139;29;20464;-89
2022/01/14 01:09:09;;;;;;;114.32;20.13;;;;;;;0.48;100.00;103557.84;4938964;29;20045;-90
2022/01/14 01:11:40;;;;;;;;;;;;;;;0.94;100.00;103618.63;4939633;29;20039;-89
2022/01/14 01:14:18;;;;;;;121.47;19.23;;;;;;;0.40;100.00;103552.06;4953349;28;19922;-89
2022/01/14 01:16:44;;;;;;;100.63;19.00;;;;;;;0.31;100.00;103541.84;4938523;29;20039;-90
2022/01/14 01:19:10;;;;;;;145.20;20.38;;;;;;;0.62;100.00;103590.97;4938375;29;20043;-89
2022/01/14 01:21:37;;;;;;;121.93;19.40;;;;;;;0.77;100.00;103610.66;4954556;28;20528;-89
2022/01/14 01:24:03;;;;;;;79.47;19.20;;;;;;;0.58;100.00;103579.59;4937397;29;20416;-88
2022/01/14 01:26:38;;;;;;;111.32;19.33;;;;;;;0.31;100.00;103542.72;4954017;28;20039;-88
2022/01/14 01:31:41;;;;;;;111.53;18.83;;;;;;;0.48;100.00;103576.53;4954954;29;20031;-88
2022/01/14 01:34:16;;;;;;;118.03;20.13;;;;;;;0.49;100.00;103574.75;4969852;28;20599;-88
2022/01/14 01:36:44;;;;;;;99.65;18.90;;;;;;;0.30;100.00;103545.47;4938116;29;20059;-88
2022/01/14 01:39:13;;;;;;;104.45;20.27;;;;;;;0.41;100.00;103567.13;4969877;28;20495;-88
2022/01/14 01:41:43;;;;;;;81.10;19.13;;;;;;;0.46;100.00;103580.25;4937693;29;20035;-89
2022/01/14 01:44:10;;;;;;;94.00;19.45;;;;;;;0.64;100.00;103605.97;4970371;28;20030;-89
2022/01/14 01:46:39;;;;;;;132.85;19.92;;;;;;;0.54;100.00;103574.50;4953698;28;20120;-89
2022/01/14 01:49:07;;;;;;;136.90;20.70;;;;;;;0.60;100.00;103587.50;4953665;28;20396;-89
2022/01/14 01:51:39;;;;;;;152.80;20.25;;;;;;;0.42;100.00;103562.66;4953763;28;20527;-89
2022/01/14 01:54:12;;;;;;;96.03;19.08;;;;;;;0.24;100.00;103533.31;4937832;29;20385;-89
2022/01/14 01:56:38;;;;;;;122.40;19.23;;;;;;;0.51;100.00;103570.16;4937831;29;20053;-89
2022/01/14 01:59:05;;;;;;;92.68;19.50;;;;;;;0.62;100.00;103593.63;4969591;28;20521;-90
2022/01/14 02:01:35;;;;;;;126.22;19.30;;;;;;;0.37;100.00;103557.56;4937835;29;20159;-89
2022/01/14 02:04:01;;;;;;;139.85;20.30;;;;;;;0.25;100.00;103544.84;4953408;28;20071;-89
2022/01/14 02:06:27;;;;;;;136.70;19.75;;;;;;;0.21;100.00;103536.13;4937753;29;20062;-89
2022/01/14 02:08:53;;;;;;;92.63;18.83;;;;;;;0.58;100.00;103598.28;4922471;29;20455;-89
2022/01/14 02:11:20;;;;;;;99.05;18.98;;;;;;;0.46;100.00;103578.44;4922255;29;20035;-89
2022/01/14 02:13:55;;;;;;;89.53;19.75;;;;;;;0.16;100.00;103532.84;4937583;29;20404;-89
2022/01/14 02:16:35;;;;;;;131.13;20.88;;;;;;;0.26;100.00;103544.75;4969715;28;20483;-89
2022/01/14 02:19:18;;;;;;;125.95;18.92;;;;;;;0.40;100.00;103568.06;4937771;29;20039;-89
2022/01/14 02:22:10;;;;;;;120.47;19.63;;;;;;;0.21;100.00;103537.94;4951843;29;20443;-89
2022/01/14 02:27:12;;;;;;;73.93;17.92;;;;;;;0.36;100.00;103557.66;4954571;28;20428;-88
2022/01/14 02:29:39;;;;;;;87.57;18.63;;;;;;;0.20;100.00;103545.09;4969138;28;20094;-88
2022/01/14 02:32:06;;;;;;;119.40;19.23;;;;;;;0.33;100.00;103554.19;4953133;29;20046;-89
2022/01/14 02:34:32;;;;;;;106.50;15.75;;;;;;;0.02;100.00;103495.34;4936637;29;20035;-88
2022/01/14 02:36:57;;;;;;;91.25;17.60;;;;;;;-0.01;100.00;103496.38;4969388;28;20023;-89
2022/01/14 02:39:26;;;;;;;141.48;18.02;;;;;;;0.17;100.00;103538.09;4969272;28;20392;-89
2022/01/14 02:41:52;;;;;;;111.90;17.45;;;;;;;0.26;100.00;103551.91;4954708;28;20118;-89
2022/01/14 02:44:25;;;;;;;113.32;16.92;;;;;;;-0.16;100.00;103494.47;4937146;29;20531;-89
2022/01/14 02:46:56;;;;;;;85.95;17.50;;;;;;;-0.24;100.00;103485.06;4969034;28;20042;-89
2022/01/14 02:49:29;;;;;;;78.40;16.77;;;;;;;-0.15;100.00;103501.56;4968753;28;20090;-88
2022/01/14 02:51:55;;;;;;;;;;;;;;;0.30;100.00;103566.84;4969320;28;20038;-89
2022/01/14 02:54:24;;;;;;;90.57;16.85;;;;;;;-0.12;100.00;103499.56;4937931;29;20275;-89
2022/01/14 02:56:56;;;;;;;115.47;18.77;;;;;;;-0.13;100.00;103497.88;4937569;29;20046;-89
2022/01/14 02:59:24;;;;;;;103.85;17.95;;;;;;;-0.15;100.00;103494.41;4939294;29;20440;-90
2022/01/14 03:01:50;;;;;;;106.95;18.02;;;;;;;0.22;100.00;103545.00;4941308;29;20043;-90
2022/01/14 03:04:20;;;;;;;100.20;16.95;;;;;;;-0.18;100.00;103491.91;4957110;28;20039;-89
2022/01/14 03:06:49;;;;;;;72.05;17.25;;;;;;;-0.23;100.00;103477.94;4973154;28;20042;-90
2022/01/14 03:09:18;;;;;;;83.88;17.92;;;;;;;0.16;100.00;103536.38;4940787;29;20058;-89
2022/01/14 03:11:48;;;;;;;133.20;19.25;;;;;;;-0.08;100.00;103511.81;4956579;28;20059;-90
2022/01/14 03:14:22;;;;;;;106.90;17.85;;;;;;;-0.01;100.00;103510.56;4938580;29;20055;-90
2022/01/14 03:16:51;;;;;;;50.70;16.05;;;;;;;0.15;100.00;103528.47;4973233;28;20047;-90
2022/01/14 03:19:22;;;;;;;81.05;16.90;;;;;;;0.32;100.00;103543.56;4956415;29;20042;-89
2022/01/14 03:21:51;;;;;;;94.03;16.58;;;;;;;-0.09;100.00;103490.56;4940880;29;20039;-90
2022/01/14 03:24:20;;;;;;;91.95;17.75;;;;;;;-0.13;100.00;103487.19;4956622;28;20097;-90
2022/01/14 03:26:48;;;;;;;103.15;17.52;;;;;;;0.19;100.00;103538.00;4977691;28;20042;-89
2022/01/14 03:29:15;;;;;;;103.65;17.70;;;;;;;0.19;100.00;103537.16;4980472;28;20035;-89
2022/01/14 03:31:44;;;;;;;75.63;16.63;;;;;;;-0.11;100.00;103489.78;4962008;29;20037;-88
2022/01/14 03:34:10;;;;;;;108.90;17.50;;;;;;;-0.15;100.00;103488.22;4973890;28;20035;-89
2022/01/14 03:36:36;;;;;;;126.65;17.08;;;;;;;0.15;100.00;103540.00;4972452;28;20077;-88
2022/01/14 03:39:03;;;;;;;79.57;16.42;;;;;;;-0.12;100.00;103498.72;4955651;28;20063;-89
2022/01/14 03:41:30;;;;;;;137.13;17.67;;;;;;;0.16;100.00;103531.06;4940323;29;20073;-89
2022/01/14 03:43:56;;;;;;;56.33;17.13;;;;;;;0.23;100.00;103530.72;4939660;29;20439;-88
2022/01/14 03:46:22;;;;;;;62.15;16.08;;;;;;;-0.08;100.00;103476.28;4955879;28;20035;-89
2022/01/14 03:48:47;;;;;;;56.53;15.85;;;;;;;0.04;100.00;103493.44;4971963;28;20098;-88
2022/01/14 03:51:13;;;;;;;74.65;16.75;;;;;;;0.16;100.00;103506.13;4971659;28;20158;-89
2022/01/14 03:53:42;;;;;;;89.85;17.13;;;;;;;0.30;100.00;103526.78;4956239;29;20054;-89
2022/01/14 03:56:08;;;;;;;96.97;17.05;;;;;;;0.42;100.00;103557.31;4955943;28;20031;-89
2022/01/14 03:58:34;;;;;;;87.45;16.75;;;;;;;0.01;100.00;103489.13;4939788;29;20521;-89
2022/01/14 04:01:07;;;;;;;74.18;17.40;;;;;;;0.05;100.00;103487.16;4955228;28;20051;-89
2022/01/14 04:03:34;;;;;;;194.57;17.52;;;;;;;0.36;100.00;103547.81;4971817;28;20035;-89
2022/01/14 04:06:02;;;;;;;172.80;17.80;;;;;;;0.25;100.00;103532.38;4956134;28;20400;-88
2022/01/14 04:08:27;;;;;;;101.90;16.42;;;;;;;0.37;100.00;103556.69;4955497;29;20030;-89
2022/01/14 04:10:58;;;;;;;121.72;16.77;;;;;;;-0.02;100.00;103495.47;4955213;28;20042;-90
2022/01/14 04:13:37;;;;;;;119.45;16.90;;;;;;;0.21;100.00;103530.81;4938525;28;20357;-90
2022/01/14 04:16:07;;;;;;;74.70;16.50;;;;;;;-0.03;100.00;103496.44;4907008;29;20042;-89
2022/01/14 04:18:33;;;;;;;124.15;16.42;;;;;;;-0.07;100.00;103489.53;4920638;29;20036;-89
2022/01/14 04:21:05;;;;;;;119.40;17.20;;;;;;;-0.09;100.00;103479.88;4904994;29;20032;-89
2022/01/14 04:23:31;;;;;;;118.30;16.30;;;;;;;-0.11;100.00;103473.78;4920633;29;20024;-90
2022/01/14 04:26:01;;;;;;;105.38;15.90;;;;;;;-0.04;100.00;103493.84;4920182;29;20039;-89
2022/01/14 04:28:30;;;;;;;174.02;16.75;;;;;;;-0.22;100.00;103477.84;4920231;29;20551;-89
2022/01/14 04:30:56;;;;;;;117.88;16.27;;;;;;;-0.23;100.00;103476.13;4919689;29;20038;-88
2022/01/14 04:33:30;;;;;;;142.10;16.83;;;;;;;-0.26;100.00;103472.78;4919662;29;20492;-88
2022/01/14 04:35:58;;;;;;;140.05;15.75;;;;;;;-0.24;100.00;103479.72;4919561;29;20044;-88
2022/01/14 04:38:24;;;;;;;141.77;16.63;;;;;;;0.02;100.00;103514.03;4904141;29;20038;-89
2022/01/14 04:40:53;;;;;;;96.22;16.02;;;;;;;-0.25;100.00;103472.69;4904229;29;20042;-89
2022/01/14 04:43:20;;;;;;;120.35;16.60;;;;;;;-0.14;100.00;103480.13;4936058;29;20098;-89
2022/01/14 04:48:48;;;;;;;100.65;15.52;;;;;;;-0.10;100.00;103489.69;4914756;29;20035;-89
2022/01/14 04:51:20;;;;;;;114.68;16.10;;;;;;;-0.25;100.00;103469.13;4935284;29;20044;-88
2022/01/14 04:53:45;;;;;;;105.07;15.50;;;;;;;-0.40;100.00;103447.66;4919585;29;20031;-89
2022/01/14 04:56:11;;;;;;;91.95;15.90;;;;;;;-0.11;100.00;103487.97;4904270;29;20035;-89
2022/01/14 04:58:37;;;;;;;130.10;14.02;;;;;;;-0.14;100.00;103496.13;4935593;29;20035;-89
2022/01/14 05:01:09;;;;;;;98.18;14.93;;;;;;;0.01;100.00;103514.97;4935112;29;20127;-89
2022/01/14 05:03:37;;;;;;;58.13;15.50;;;;;;;-0.12;100.00;103480.03;4919551;29;20039;-88
2022/01/14 05:06:07;;;;;;;58.55;14.52;;;;;;;-0.32;100.00;103441.06;4904122;29;20032;-88
2022/01/14 05:08:38;;;;;;;89.07;15.77;;;;;;;-0.04;100.00;103476.03;4919185;29;20457;-89
2022/01/14 05:11:22;;;;;;;80.05;14.93;;;;;;;0.02;100.00;103490.84;4933805;29;20134;-89
2022/01/14 05:13:48;;;;;;;108.25;15.10;;;;;;;-0.33;100.00;103453.53;4923629;29;20059;-88
2022/01/14 05:16:15;;;;;;;81.75;14.48;;;;;;;-0.06;100.00;103501.06;4954207;29;20086;-89
2022/01/14 05:18:40;;;;;;;119.43;15.00;;;;;;;-0.31;100.00;103458.78;4938057;29;20028;-88
2022/01/14 05:21:17;;;;;;;98.15;14.65;;;;;;;-0.38;100.00;103459.09;4953755;28;20130;-88
2022/01/14 05:23:42;;;;;;;89.55;15.00;;;;;;;-0.31;100.00;103469.47;4937580;29;20035;-88
2022/01/14 05:26:08;;;;;;;99.40;15.57;;;;;;;-0.45;100.00;103447.03;4922126;29;20385;-87
2022/01/14 05:28:34;;;;;;;93.68;14.95;;;;;;;-0.16;100.00;103490.03;4937674;29;20031;-88
2022/01/14 05:30:59;;;;;;;72.90;14.95;;;;;;;-0.41;100.00;103450.41;4953666;29;20035;-88
2022/01/14 05:33:27;;;;;;;85.13;14.98;;;;;;;-0.44;100.00;103451.44;4937484;29;20051;-88
2022/01/14 05:35:53;;;;;;;67.68;14.23;;;;;;;-0.55;100.00;103427.09;4922003;29;20036;-88
2022/01/14 05:38:18;;;;;;;69.32;15.55;;;;;;;-0.46;100.00;103437.28;4953500;28;20053;-88
2022/01/14 05:40:45;;;;;;;79.72;14.32;;;;;;;-0.22;100.00;103487.69;4970130;28;20035;-88
2022/01/14 05:43:10;;;;;;;72.30;15.13;;;;;;;-0.24;100.00;103485.06;4937812;29;20086;-88
2022/01/14 05:45:36;;;;;;;72.97;14.57;;;;;;;-0.26;100.00;103489.63;4921738;29;20032;-88
2022/01/14 05:48:01;;;;;;;87.10;14.55;;;;;;;-0.29;100.00;103487.13;4937991;29;20059;-88
2022/01/14 05:50:27;;;;;;;81.65;14.70;;;;;;;-0.28;100.00;103487.97;4953431;28;20059;-88
2022/01/14 05:53:02;;;;;;;78.10;15.18;;;;;;;-0.42;100.00;103462.88;4937921;29;20031;-88
2022/01/14 05:55:27;;;;;;;103.20;14.50;;;;;;;-0.28;100.00;103485.31;4937250;29;20031;-88
2022/01/14 05:57:53;;;;;;;74.05;14.70;;;;;;;-0.50;100.00;103442.88;4937203;29;20039;-88
2022/01/14 06:00:20;;;;;;;88.00;15.40;;;;;;;-0.53;100.00;103451.91;4937418;29;20263;-88
2022/01/14 06:02:47;;;;;;;45.72;14.50;;;;;;;-0.36;100.00;103473.22;4937269;29;20035;-89
2022/01/14 06:05:13;;;;;;;104.95;16.33;;;;;;;-0.32;100.00;103470.41;4969678;28;20020;-88
2022/01/14 06:07:41;;;;;;;78.60;16.55;;;;;;;-0.33;100.00;103480.22;4969721;28;20035;-88
2022/01/14 06:10:07;;;;;;;84.32;17.48;;;;;;;-0.76;100.00;103413.94;4952693;28;20127;-88
2022/01/14 06:12:33;;;;;;;73.07;15.70;;;;;;;-0.74;100.00;103414.72;4937265;29;20124;-88
2022/01/14 06:15:05;;;;;;;81.57;16.63;;;;;;;-0.34;100.00;103478.47;4936829;29;20069;-90
2022/01/14 06:17:36;;;;;;;64.15;16.60;;;;;;;-0.52;100.00;103461.63;4937578;29;20042;-90
2022/01/14 06:20:04;;;;;;;50.75;16.35;;;;;;;-0.72;100.00;103420.84;4954050;29;20073;-91
2022/01/14 06:22:33;;;;;;;79.90;17.13;;;;;;;-0.46;100.00;103468.44;4938350;29;20059;-91
2022/01/14 06:25:08;;;;;;;72.28;16.85;;;;;;;-0.75;100.00;103418.31;4938781;29;20074;-91
2022/01/14 06:27:34;;;;;;;57.15;14.77;;;;;;;-0.45;100.00;103462.19;4938334;29;20039;-89
2022/01/14 06:30:01;;;;;;;66.70;15.60;;;;;;;-0.56;100.00;103439.59;4937299;29;20113;-89
2022/01/14 06:32:26;;;;;;;64.30;16.35;;;;;;;-0.29;100.00;103481.78;4952870;28;20494;-88
2022/01/14 06:34:52;;;;;;;59.88;16.67;;;;;;;-0.16;100.00;103506.03;4955712;28;20069;-87
2022/01/14 06:37:20;;;;;;;86.88;17.50;;;;;;;-0.63;100.00;103421.31;4940899;29;20201;-88
2022/01/14 06:39:46;;;;;;;62.80;16.55;;;;;;;-0.64;100.00;103420.44;4940458;29;20023;-90
2022/01/14 06:42:11;;;;;;;59.60;17.92;;;;;;;-0.32;100.00;103467.75;4957734;28;20086;-89
2022/01/14 06:47:41;;;;;;;66.63;17.30;;;;;;;-0.59;100.00;103415.75;4947686;28;20114;-91
2022/01/14 06:50:13;;;;;;;70.25;17.20;;;;;;;-0.58;100.00;103416.59;4942074;29;20447;-92
2022/01/14 06:53:03;;;;;;;73.28;17.45;;;;;;;-0.16;100.00;103471.34;4941836;29;20031;-91
2022/01/14 06:58:23;;;;;;;74.00;17.65;;;;;;;-0.62;100.00;103410.56;4972041;28;20399;-94
2022/01/14 07:04:13;;;;;;;92.15;18.67;;;;;;;-0.42;100.00;103456.69;4952502;28;20043;-89
2022/01/14 07:10:22;;;;;;;89.72;17.83;;;;;;;-0.73;100.00;103410.25;4959299;29;19965;-94
2022/01/14 07:21:20;;;;;;;114.40;18.05;;;;;;;-0.36;100.00;103472.38;4928581;28;20065;-94
2022/01/14 07:25:03;;;;;;;95.55;19.02;;;;;;;-0.69;100.00;103432.28;4918375;29;20573;-94
2022/01/14 07:28:02;;;;;;;;;;;;;;;;;;;;;
2022/01/14 07:31:52;;;;;;;141.77;20.08;;;;;;;-0.71;100.00;103456.34;4858713;29;20109;-93
2022/01/14 07:45:41;;;;;;;83.50;19.85;;;;;;;-0.83;100.00;103440.97;4788583;29;20723;-94
2022/01/14 07:48:58;;;;;;;118.75;20.23;;;;;;;-0.36;100.00;103497.22;4778238;29;20047;-92
2022/01/14 07:51:27;;;;;;;95.78;19.42;;;;;;;-0.71;100.00;103449.22;4764407;29;20050;-88
2022/01/14 07:53:52;;;;;;;95.40;20.70;;;;;;;-0.63;100.00;103456.84;4826501;29;20117;-87
2022/01/14 07:56:18;;;;;;;78.32;21.35;;;;;;;-0.72;100.00;103434.16;4825866;29;20492;-88
2022/01/14 07:58:43;;;;;;;132.43;21.02;;;;;;;-0.54;100.00;103480.38;4828849;29;20157;-88
2022/01/14 08:01:09;;;;;;;98.80;21.42;;;;;;;-0.56;100.00;103476.94;4892522;29;20167;-88
2022/01/14 08:03:37;;;;;;;112.53;21.83;;;;;;;-0.46;100.00;103487.13;4913117;29;20104;-87
2022/01/14 08:06:04;;;;;;;77.20;22.30;;;;;;;-0.61;100.00;103446.94;4898101;29;20134;-87
2022/01/14 08:08:29;;;;;;;151.93;22.42;;;;;;;-0.52;100.00;103469.63;4897045;29;20052;-88
2022/01/14 08:10:58;;;;;;;116.63;23.25;;;;;;;-0.46;100.00;103481.78;4896983;29;20397;-88
2022/01/14 08:13:24;;;;;;;120.85;22.17;;;;;;;-0.45;100.00;103480.84;4942397;29;20522;-88
2022/01/14 08:15:49;;;;;;;129.38;22.92;;;;;;;-0.68;100.00;103448.19;4956311;28;20035;-88
2022/01/14 08:18:15;;;;;;;107.38;21.92;;;;;;;-0.26;100.00;103512.78;4939173;29;20114;-88
2022/01/14 08:20:41;;;;;;;111.22;22.10;;;;;;;-0.34;100.00;103474.97;4938338;29;20567;-88
2022/01/14 08:23:06;;;;;;;110.47;23.45;;;;;;;-0.69;100.00;103416.28;4938830;29;20469;-86
2022/01/14 08:25:32;;;;;;;102.75;22.23;;;;;;;-0.45;100.00;103456.84;4970415;28;20037;-88
2022/01/14 08:27:57;;;;;;;108.03;21.60;;;;;;;-0.20;100.00;103488.44;4938991;29;20388;-87
2022/01/14 08:30:23;;;;;;;118.65;21.98;;;;;;;-0.62;100.00;103412.34;4961905;23;20050;-89
2022/01/14 08:32:50;;;;;;;82.72;22.23;;;;;;;-0.57;100.00;103413.84;4960831;28;20100;-88
2022/01/14 08:35:16;;;;;;;96.85;22.48;;;;;;;-0.28;100.00;103463.97;4963733;28;20033;-89
2022/01/14 08:37:42;;;;;;;109.05;22.33;;;;;;;-0.44;100.00;103422.09;4971510;28;20038;-89
2022/01/14 08:40:09;;;;;;;103.13;23.85;;;;;;;-0.30;100.00;103442.69;4958486;28;20027;-89
2022/01/14 08:42:38;;;;;;;110.82;24.45;;;;;;;-0.05;100.00;103484.97;4972004;28;20509;-89
2022/01/14 08:45:05;;;;;;;91.15;24.77;;;;;;;-0.41;100.00;103413.91;4961444;28;20023;-90
2022/01/14 08:47:31;;;;;;;71.30;24.00;;;;;;;-0.24;100.00;103442.38;4977610;28;20031;-90
2022/01/14 08:49:58;;;;;;;65.88;24.23;;;;;;;0.10;100.00;103488.63;4992075;28;20041;-90
2022/01/14 08:52:24;;;;;;;127.53;23.60;;;;;;;-0.04;100.00;103459.16;4977107;28;20061;-88
2022/01/14 08:54:51;;;;;;;129.80;24.63;;;;;;;0.01;100.00;103465.09;4961617;28;20081;-89
2022/01/14 08:57:18;;;;;;;79.00;23.30;;;;;;;-0.04;100.00;103430.66;4936669;28;20030;-90
2022/01/14 08:59:44;;;;;;;83.72;23.38;;;;;;;0.19;100.00;103452.56;4949701;28;20038;-89
2022/01/14 09:02:10;;;;;;;111.10;23.50;;;;;;;0.36;100.00;103480.19;4973448;28;20085;-88
2022/01/14 09:04:43;;;;;;;90.35;22.65;;;;;;;0.02;100.00;103420.59;4941799;28;20167;-89
2022/01/14 09:07:09;;;;;;;65.07;24.45;;;;;;;0.47;100.00;103488.47;4945372;28;20407;-90
2022/01/14 09:09:35;;;;;;;55.33;23.10;;;;;;;0.45;100.00;103469.84;4940791;28;20039;-88
2022/01/14 09:12:02;;;;;;;89.07;23.13;;;;;;;0.29;100.00;103432.41;4925419;28;20035;-85
2022/01/14 09:14:28;;;;;;;91.60;23.70;;;;;;;0.41;100.00;103438.03;4964474;28;20120;-88
2022/01/14 09:16:55;;;;;;;78.13;23.08;;;;;;;0.36;100.00;103440.97;4995511;28;20923;-88
2022/01/14 09:19:21;;;;;;;68.93;21.92;;;;;;;0.80;100.00;103498.25;4971759;28;20403;-89
2022/01/14 09:21:49;;;;;;;55.58;22.38;;;;;;;0.73;100.00;103467.47;4940367;28;20046;-85
2022/01/14 09:24:15;;;;;;;88.72;23.05;;;;;;;0.66;100.00;103451.75;4973958;28;20411;-89
2022/01/14 09:26:41;;;;;;;64.07;22.50;;;;;;;0.81;100.00;103482.13;4956628;28;20029;-88
2022/01/14 09:29:08;;;;;;;67.57;21.50;;;;;;;0.58;100.00;103437.97;4956602;28;20077;-86
2022/01/14 09:31:36;;;;;;;79.38;21.23;;;;;;;0.87;100.00;103473.75;4955995;28;20050;-87
2022/01/14 09:34:01;;;;;;;43.55;23.10;;;;;;;0.59;100.00;103428.13;4956504;28;20090;-87
2022/01/14 09:36:27;;;;;;;55.55;23.13;;;;;;;1.15;100.00;103500.72;4956490;28;20031;-87
2022/01/14 09:38:59;;;;;;;69.55;21.92;;;;;;;0.90;100.00;103450.44;4956618;28;20368;-87
2022/01/14 09:41:25;;;;;;;58.22;22.45;;;;;;;0.75;100.00;103420.97;4939912;28;20035;-87
2022/01/14 09:43:57;;;;;;;50.40;21.15;;;;;;;1.15;100.00;103496.25;4956524;28;20134;-86
2022/01/14 09:46:22;;;;;;;57.33;22.33;;;;;;;1.01;100.00;103448.03;4956509;28;20466;-86
2022/01/14 09:48:51;;;;;;;58.63;23.33;;;;;;;1.03;100.00;103447.00;4972445;28;20123;-87
2022/01/14 09:51:17;;;;;;;76.53;23.42;;;;;;;1.27;100.00;103478.63;4973529;28;20030;-87
2022/01/14 09:53:42;;;;;;;50.80;22.60;;;;;;;1.38;100.00;103475.31;4940434;28;20065;-87
2022/01/14 09:56:08;;;;;;;51.65;22.65;;;;;;;1.54;100.00;103488.66;4956342;28;20043;-87
2022/01/14 09:58:40;;;;;;;53.58;22.92;;;;;;;1.42;100.00;103446.53;4939590;28;20042;-87
2022/01/14 10:01:10;;;;;;;;;;;;;;;2.04;100.00;103514.19;4957325;28;20027;-87
2022/01/14 10:03:54;;;;;;;49.30;22.25;;;;;;;1.70;100.00;103460.00;4971986;28;19933;-87
2022/01/14 10:06:40;;;;;;;39.63;22.83;;;;;;;2.12;100.00;103519.06;4956371;28;20031;-86
2022/01/14 10:09:17;;;;;;;47.05;21.27;;;;;;;1.92;100.00;103490.84;4975067;28;20070;-87
2022/01/14 10:11:57;;;;;;;48.78;22.40;;;;;;;1.70;100.00;103451.97;4976121;28;20088;-87
2022/01/14 10:14:26;;;;;;;43.83;21.95;;;;;;;1.74;100.00;103460.66;4960058;28;20039;-87
2022/01/14 10:16:58;;;;;;;32.28;19.83;;;;;;;2.03;100.00;103506.25;4959709;28;20037;-87
2022/01/14 10:19:28;;;;;;;36.80;20.35;;;;;;;2.20;100.00;103532.84;4976044;28;20117;-86
2022/01/14 10:21:55;;;;;;;37.63;21.63;;;;;;;2.27;100.00;103531.53;4977398;28;20034;-87
2022/01/14 10:24:24;;;;;;;38.55;21.05;;;;;;;2.30;100.00;103534.97;4959753;28;20394;-87
2022/01/14 10:26:58;;;;;;;40.53;21.25;;;;;;;2.32;100.00;103520.53;4975864;28;20038;-87
2022/01/14 10:29:37;;;;;;;67.43;21.17;;;;;;;2.36;100.00;103523.84;4959394;28;20035;-87
2022/01/14 10:32:05;;;;;;;41.42;21.08;;;;;;;2.12;100.00;103504.81;4975182;28;20082;-87
2022/01/14 10:34:31;;;;;;;45.13;22.27;;;;;;;1.84;100.00;103479.72;4975772;28;20188;-87
2022/01/14 10:37:16;;;;;;;34.33;20.98;;;;;;;1.95;100.00;103485.28;4959611;28;20138;-88
2022/01/14 10:39:54;;;;;;;41.78;21.27;;;;;;;2.11;100.00;103514.66;4975443;28;20471;-87
2022/01/14 10:42:27;;;;;;;39.83;21.55;;;;;;;2.03;100.00;103492.84;4944022;28;20130;-87
2022/01/14 10:44:53;;;;;;;60.20;34.17;;;;;;;2.19;100.00;103520.41;4959735;28;20066;-87
2022/01/14 10:47:25;;;;;;;73.80;45.97;;;;;;;2.07;100.00;103484.53;4943760;28;20114;-87
2022/01/14 10:49:56;;;;;;;65.28;42.30;;;;;;;2.05;100.00;103461.47;4958868;28;20035;-87
2022/01/14 10:52:24;;;;;;;51.88;32.88;;;;;;;2.19;100.00;103484.72;4976807;28;20170;-87
2022/01/14 10:54:59;;;;;;;39.70;24.38;;;;;;;2.05;100.00;103446.28;4975658;28;20034;-87
2022/01/14 10:57:27;;;;;;;33.13;21.83;;;;;;;2.25;100.00;103485.19;4959162;28;20451;-86
2022/01/14 10:59:56;;;;;;;37.55;22.10;;;;;;;2.41;100.00;103508.38;4976270;28;20062;-87
2022/01/14 11:02:37;;;;;;;35.80;21.50;;;;;;;1.97;100.00;103435.16;4976217;28;20030;-87
2022/01/14 11:05:05;;;;;;;38.08;22.45;;;;;;;2.17;100.00;103455.38;4958733;28;20376;-87
2022/01/14 11:07:31;;;;;;;34.92;22.85;;;;;;;2.09;100.00;103436.22;4958383;28;20485;-88
2022/01/14 11:10:00;;;;;;;36.30;23.77;;;;;;;2.16;100.00;103434.03;4942813;28;20041;-87
2022/01/14 11:12:29;;;;;;;35.60;22.90;;;;;;;2.50;100.00;103488.16;4943097;28;20065;-88
2022/01/14 11:14:55;;;;;;;37.20;22.58;;;;;;;2.22;100.00;103429.13;4943362;28;20513;-88
2022/01/14 11:17:22;;;;;;;33.20;22.02;;;;;;;2.57;100.00;103493.03;4975137;28;20049;-89
2022/01/14 11:19:48;;;;;;;36.25;21.83;;;;;;;2.17;100.00;103417.88;4957532;28;20054;-89
2022/01/14 11:24:58;;;;;;;34.42;21.42;;;;;;;2.35;100.00;103431.91;4948061;28;20561;-89
2022/01/14 11:27:26;;;;;;;30.45;21.50;;;;;;;2.76;100.00;103484.69;4959199;28;20045;-89
2022/01/14 11:29:57;;;;;;;32.65;21.58;;;;;;;2.57;100.00;103447.47;4958830;28;20054;-89
2022/01/14 11:32:24;;;;;;;31.35;21.13;;;;;;;2.51;100.00;103438.94;4959036;28;20051;-91
2022/01/14 11:34:51;;;;;;;34.15;22.33;;;;;;;2.55;100.00;103430.59;4974877;28;20035;-88
2022/01/14 11:38:29;;;;;;;32.58;21.13;;;;;;;2.67;100.00;103434.31;4959156;28;20065;-89
2022/01/14 11:40:55;;;;;;;31.20;20.88;;;;;;;3.01;100.00;103501.84;4971214;28;20043;-89
2022/01/14 11:43:45;;;;;;;32.92;21.27;;;;;;;3.09;100.00;103490.63;4942399;28;20035;-89
2022/01/14 11:46:34;;;;;;;30.40;20.70;;;;;;;2.69;100.00;103423.50;4959306;28;20040;-90
2022/01/14 11:50:08;;;;;;;;;;;;;;;;;;;;;
2022/01/14 11:52:41;;;;;;;32.45;21.08;;;;;;;3.05;100.00;103471.16;4968141;28;20049;-89
2022/01/14 11:55:29;;;;;;;38.70;25.98;;;;;;;3.27;100.00;103481.34;4975142;28;20070;-89
2022/01/14 11:58:07;;;;;;;31.08;21.15;;;;;;;2.88;100.00;103415.97;4976218;28;20034;-89
2022/01/14 12:00:39;;;;;;;32.05;22.42;;;;;;;3.08;100.00;103452.19;4958196;28;20038;-89
2022/01/14 12:03:07;;;;;;;34.90;22.45;;;;;;;3.24;100.00;103470.81;4976318;28;20110;-89
2022/01/14 12:05:58;;;;;;;32.05;21.30;;;;;;;3.26;100.00;103468.03;4958589;28;20491;-89
2022/01/14 12:08:29;;;;;;;33.80;22.20;;;;;;;3.16;100.00;103449.00;4974561;28;20033;-89
2022/01/14 12:11:01;;;;;;;34.72;22.73;;;;;;;3.22;100.00;103453.09;4958361;28;20031;-89
2022/01/14 12:13:54;;;;;;;34.35;22.08;;;;;;;2.96;100.00;103404.72;4974426;28;20026;-89
2022/01/14 12:16:48;;;;;;;35.33;23.02;;;;;;;3.26;100.00;103457.28;4958510;28;20364;-89
2022/01/14 12:19:17;;;;;;;35.05;22.17;;;;;;;2.86;100.00;103395.56;4973385;28;20403;-88
2022/01/14 12:21:52;;;;;;;34.28;22.60;;;;;;;3.22;100.00;103453.97;4975469;28;20058;-91